Weather at Quion Hill Airport

Public forecast

Using degrees Celsius for public forecast. Weather courtesy of forecast.io.

Closest aviation weather report (METAR) to Quion Hill Airport

Closest report is Bauerfield International Airport, 11.8 nm (21.9 km) SW. Retrieved 2021/01/22 23:00 UTC (24 minutes ago):

NVVV 222300Z 04006KT 9999 FEW020 BKN040 OVC110 28/24 Q1008

Closest aviation forecast (TAF) to Quion Hill Airport

Closest forecast is Bauerfield International Airport, 11.8 nm (21.9 km) SW. Retrieved 2021/01/22 18:00 UTC (5 hours ago):

TAF NVVV 221600Z 2218/2318 VRB03KT 9999 BKN020 OVC100 INTER 2218/2224 7000 -RA FEW008 BKN018 FEW02CB OVC090